Time;durP1;ratioP1;P1;durP2;ratioP2;P2;SDS_P1;SDS_P2;PMS_P1;PMS_P2;Temp;Humidity;BMP_temperature;BMP_pressure;BME280_temperature;BME280_humidity;BME280_pressure;Samples;Min_cycle;Max_cycle;Signal;HPM_P1;HPM_P2
2023/10/16 00:02:22;;;;;;;9.73;4.07;;;;;;;-145.18;100.00;46644.78;5026276;28;20267;-66
2023/10/16 00:04:48;;;;;;;7.70;3.93;;;;;;;-145.18;100.00;46650.63;5019022;28;20277;-65
2023/10/16 00:07:22;;;;;;;8.30;3.80;;;;;;;-145.18;100.00;46644.78;5025935;28;20309;-65
2023/10/16 00:09:53;;;;;;;11.87;4.00;;;;;;;-145.18;100.00;46648.69;5014424;28;20278;-66
2023/10/16 00:12:19;;;;;;;8.73;3.87;;;;;;;-145.18;100.00;46646.72;5027941;28;20275;-65
2023/10/16 00:14:48;;;;;;;9.23;3.80;;;;;;;-145.18;100.00;46648.69;5030252;28;20250;-65
2023/10/16 00:17:16;;;;;;;8.00;4.43;;;;;;;-145.18;100.00;46646.72;5026080;28;20021;-65
2023/10/16 00:19:44;;;;;;;8.83;3.50;;;;;;;-145.18;100.00;46640.88;5016157;28;20278;-65
2023/10/16 00:22:16;;;;;;;11.50;3.87;;;;;;;-145.18;100.00;46648.69;5013240;28;20266;-65
2023/10/16 00:24:48;;;;;;;10.90;3.87;;;;;;;-145.18;100.00;46644.78;5013869;28;20255;-65
2023/10/16 00:27:16;;;;;;;9.53;4.47;;;;;;;-145.18;100.00;46646.72;5022635;28;20254;-65
2023/10/16 00:29:45;;;;;;;8.53;4.60;;;;;;;-145.18;100.00;46646.72;5018078;28;20790;-65
2023/10/16 00:32:12;;;;;;;8.93;3.80;;;;;;;-145.18;100.00;46644.78;5023740;28;20283;-65
2023/10/16 00:34:38;;;;;;;6.17;3.77;;;;;;;-145.18;100.00;46650.63;5030645;28;20771;-65
2023/10/16 00:37:07;;;;;;;9.80;4.03;;;;;;;-145.18;100.00;46636.94;5020882;28;20803;-65
2023/10/16 00:39:33;;;;;;;10.50;4.60;;;;;;;-145.18;100.00;46636.94;5022550;28;20251;-65
2023/10/16 00:41:59;;;;;;;10.77;3.93;;;;;;;-145.18;100.00;46640.88;5029954;28;20267;-65
2023/10/16 00:44:29;;;;;;;7.47;3.90;;;;;;;-145.18;100.00;46638.91;5025138;28;20298;-66
2023/10/16 00:46:55;;;;;;;7.70;3.70;;;;;;;-145.18;100.00;46638.91;5020858;28;20263;-65
2023/10/16 00:49:23;;;;;;;5.80;3.03;;;;;;;-145.18;100.00;46640.88;5017230;28;20251;-65
2023/10/16 00:51:49;;;;;;;6.63;3.47;;;;;;;-145.18;100.00;46635.00;5020779;28;20046;-65
2023/10/16 00:54:27;;;;;;;6.90;3.70;;;;;;;-145.18;100.00;46636.94;5016380;28;20263;-65
2023/10/16 00:56:54;;;;;;;6.30;3.47;;;;;;;-145.18;100.00;46640.88;5026600;28;20271;-65
2023/10/16 00:59:23;;;;;;;8.90;3.57;;;;;;;-145.18;100.00;46640.88;5017856;28;20256;-65
2023/10/16 01:01:51;;;;;;;8.53;3.67;;;;;;;-145.18;100.00;46640.88;5020232;28;21116;-65
2023/10/16 01:04:19;;;;;;;5.83;3.33;;;;;;;-145.18;100.00;46640.88;5019819;28;20263;-65
2023/10/16 01:06:45;;;;;;;10.77;4.00;;;;;;;-145.18;100.00;46642.81;5015709;28;20756;-65
2023/10/16 01:09:22;;;;;;;7.27;3.23;;;;;;;-145.18;100.00;46642.81;5019843;28;20258;-65
2023/10/16 01:11:48;;;;;;;7.87;3.97;;;;;;;-145.18;100.00;46636.94;5026644;28;20037;-66
2023/10/16 01:14:13;;;;;;;6.10;3.63;;;;;;;-145.18;100.00;46638.91;5023059;28;20334;-65
2023/10/16 01:16:39;;;;;;;12.57;3.80;;;;;;;-145.18;100.00;46640.88;5029775;28;20094;-65
2023/10/16 01:19:09;;;;;;;5.57;3.33;;;;;;;-145.18;100.00;46640.88;5030865;28;20033;-65
2023/10/16 01:21:35;;;;;;;10.37;3.70;;;;;;;-145.18;100.00;46636.94;5014822;28;20544;-65
2023/10/16 01:24:03;;;;;;;9.87;3.83;;;;;;;-145.18;100.00;46636.94;5028535;28;20287;-65
2023/10/16 01:26:29;;;;;;;10.83;3.83;;;;;;;-145.18;100.00;46638.91;5025698;28;20025;-65
2023/10/16 01:28:55;;;;;;;9.70;3.70;;;;;;;-145.18;100.00;46640.88;5028467;28;20396;-65
2023/10/16 01:31:21;;;;;;;6.93;3.53;;;;;;;-145.18;100.00;46638.91;5033677;28;20373;-66
2023/10/16 01:33:47;;;;;;;10.20;4.07;;;;;;;-145.18;100.00;46642.81;5032300;28;20108;-65
2023/10/16 01:36:13;;;;;;;11.40;3.47;;;;;;;-145.18;100.00;46642.81;5031815;28;20056;-65
2023/10/16 01:38:39;;;;;;;12.80;4.20;;;;;;;-145.18;100.00;46646.72;5031389;28;20737;-66
2023/10/16 01:41:05;;;;;;;8.73;3.63;;;;;;;-145.18;100.00;46642.81;5033050;28;20302;-65
2023/10/16 01:43:32;;;;;;;10.53;4.30;;;;;;;-145.18;100.00;46640.88;5026852;28;20397;-66
2023/10/16 01:46:08;;;;;;;6.77;3.37;;;;;;;-145.18;100.00;46644.78;5026512;28;20108;-65
2023/10/16 01:48:34;;;;;;;;;;;;;;;-145.18;100.00;46638.91;5028784;28;20274;-65
2023/10/16 01:51:01;;;;;;;8.52;3.03;;;;;;;-145.18;100.00;46644.78;5022725;28;19928;-66
2023/10/16 01:53:32;;;;;;;11.67;3.63;;;;;;;-145.18;100.00;46644.78;5017321;28;20030;-65
2023/10/16 01:55:58;;;;;;;6.20;3.27;;;;;;;-145.18;100.00;46644.78;5021010;28;20270;-66
2023/10/16 01:58:24;;;;;;;5.60;3.07;;;;;;;-145.18;100.00;46646.72;5016093;28;20289;-65
2023/10/16 02:00:52;;;;;;;10.03;3.23;;;;;;;-145.18;100.00;46642.81;5025619;28;20045;-66
2023/10/16 02:03:18;;;;;;;7.17;3.37;;;;;;;-145.18;100.00;46642.81;5024289;28;20266;-66
2023/10/16 02:05:46;;;;;;;6.57;2.97;;;;;;;-145.18;100.00;46642.81;5019700;28;20647;-65
2023/10/16 02:08:15;;;;;;;9.00;3.20;;;;;;;-145.18;100.00;46646.72;5017126;28;20640;-65
2023/10/16 02:10:43;;;;;;;10.27;3.30;;;;;;;-145.18;100.00;46640.88;5026770;28;20337;-65
2023/10/16 02:13:10;;;;;;;11.60;3.37;;;;;;;-145.18;100.00;46640.88;5016614;28;20282;-66
2023/10/16 02:15:36;;;;;;;10.37;3.50;;;;;;;-145.18;100.00;46642.81;5023495;28;20316;-66
2023/10/16 02:18:18;;;;;;;15.60;4.27;;;;;;;-145.18;100.00;46642.81;5025331;28;20313;-66
2023/10/16 02:20:45;;;;;;;7.23;3.83;;;;;;;-145.18;100.00;46640.88;5025855;28;20373;-65
2023/10/16 02:23:10;;;;;;;5.53;3.50;;;;;;;-145.18;100.00;46642.81;5023532;28;20395;-65
2023/10/16 02:25:37;;;;;;;10.57;3.50;;;;;;;-145.18;100.00;46644.78;5033160;28;20354;-65
2023/10/16 02:28:07;;;;;;;12.73;3.80;;;;;;;-145.18;100.00;46644.78;5021787;28;20038;-66
2023/10/16 02:30:36;;;;;;;6.53;3.80;;;;;;;-145.18;100.00;46640.88;5026706;28;20283;-65
2023/10/16 02:33:45;;;;;;;9.10;3.53;;;;;;;-145.18;100.00;46642.81;5029740;28;20763;-66
2023/10/16 02:35:53;;;;;;;6.90;4.00;;;;;;;-145.18;100.00;46638.91;5019704;28;20290;-66
2023/10/16 02:38:27;;;;;;;11.87;3.70;;;;;;;-145.18;100.00;46640.88;5028114;28;20263;-65
2023/10/16 02:40:53;;;;;;;7.03;3.67;;;;;;;-145.18;100.00;46644.78;5022755;28;20351;-65
2023/10/16 02:43:20;;;;;;;8.33;3.40;;;;;;;-145.18;100.00;46640.88;5023059;28;20335;-66
2023/10/16 02:45:47;;;;;;;7.07;3.50;;;;;;;-145.18;100.00;46644.78;5023261;28;20029;-65
2023/10/16 02:48:18;;;;;;;8.97;3.80;;;;;;;-145.18;100.00;46642.81;5016022;28;20267;-66
2023/10/16 02:50:49;;;;;;;12.67;3.63;;;;;;;-145.18;100.00;46644.78;5019487;28;20357;-66
2023/10/16 02:53:27;;;;;;;7.20;3.40;;;;;;;-145.18;100.00;46638.91;5023186;28;20682;-66
2023/10/16 02:55:57;;;;;;;5.13;3.17;;;;;;;-145.18;100.00;46638.91;5021222;28;20350;-66
2023/10/16 02:58:26;;;;;;;10.50;3.50;;;;;;;-145.18;100.00;46644.78;5016737;28;20271;-66
2023/10/16 03:00:59;;;;;;;9.77;4.07;;;;;;;-145.18;100.00;46640.88;5020304;28;20262;-65
2023/10/16 03:03:26;;;;;;;8.93;3.67;;;;;;;-145.18;100.00;46640.88;5018730;28;20294;-66
2023/10/16 03:05:58;;;;;;;7.67;4.43;;;;;;;-145.18;100.00;46636.94;5017943;28;20272;-65
2023/10/16 03:08:29;;;;;;;5.47;3.40;;;;;;;-145.18;100.00;46642.81;5015737;28;20259;-65
2023/10/16 03:10:56;;;;;;;7.93;4.00;;;;;;;-145.18;100.00;46642.81;5014930;28;20687;-66
2023/10/16 03:13:21;;;;;;;8.07;3.40;;;;;;;-145.18;100.00;46636.94;5024512;28;20286;-66
2023/10/16 03:15:47;;;;;;;4.80;2.80;;;;;;;-145.18;100.00;46640.88;5017375;28;20266;-65
2023/10/16 03:18:22;;;;;;;4.13;2.67;;;;;;;-145.18;100.00;46640.88;5025454;28;20037;-66
2023/10/16 03:20:48;;;;;;;11.23;3.72;;;;;;;-145.18;100.00;46640.88;5019307;28;20508;-66
2023/10/16 03:23:14;;;;;;;5.73;3.03;;;;;;;-145.18;100.00;46638.91;5032258;28;20030;-66
2023/10/16 03:28:09;;;;;;;9.10;2.80;;;;;;;-145.18;100.00;46636.94;5026696;28;20033;-66
2023/10/16 03:30:34;;;;;;;7.23;3.70;;;;;;;-145.18;100.00;46635.00;5026685;28;20289;-66
2023/10/16 03:33:03;;;;;;;6.27;3.03;;;;;;;-145.18;100.00;46638.91;5026657;28;20289;-65
2023/10/16 03:35:31;;;;;;;5.20;2.50;;;;;;;-145.18;100.00;46636.94;5017385;28;20025;-68
2023/10/16 03:38:11;;;;;;;4.23;2.47;;;;;;;-145.18;100.00;46635.00;5023476;28;20275;-69
2023/10/16 03:40:37;;;;;;;6.87;3.27;;;;;;;-145.18;100.00;46638.91;5020439;28;20259;-69
2023/10/16 03:43:03;;;;;;;8.93;3.27;;;;;;;-145.18;100.00;46636.94;5019355;28;20718;-69
2023/10/16 03:45:28;;;;;;;5.47;3.17;;;;;;;-145.18;100.00;46635.00;5031453;28;20025;-68
2023/10/16 03:47:57;;;;;;;8.33;3.10;;;;;;;-145.18;100.00;46636.94;5016637;28;20533;-69
2023/10/16 03:50:25;;;;;;;7.77;3.67;;;;;;;-145.18;100.00;46631.09;5012288;28;20539;-69
2023/10/16 03:52:54;;;;;;;9.03;3.83;;;;;;;-145.18;100.00;46636.94;5020449;28;20289;-68
2023/10/16 03:55:24;;;;;;;10.53;4.00;;;;;;;-145.18;100.00;46636.94;5017885;28;20259;-69
2023/10/16 03:57:50;;;;;;;5.67;3.37;;;;;;;-145.18;100.00;46640.88;5029117;28;20346;-69
2023/10/16 04:00:18;;;;;;;11.23;3.60;;;;;;;-145.18;100.00;46633.06;5019418;28;20266;-69
2023/10/16 04:02:44;;;;;;;9.00;3.50;;;;;;;-145.18;100.00;46636.94;5031111;28;20286;-68
2023/10/16 04:07:54;;;;;;;6.57;3.27;;;;;;;-145.18;100.00;46635.00;5022660;28;20041;-68
2023/10/16 04:10:28;;;;;;;6.80;3.50;;;;;;;-145.18;100.00;46638.91;5028643;28;20274;-69
2023/10/16 04:12:57;;;;;;;7.40;3.70;;;;;;;-145.18;100.00;46644.78;5026482;28;20029;-69
2023/10/16 04:31:44;;;;;;;3.63;2.27;;;;;;;-145.18;100.00;46640.88;5021969;28;20398;-68
2023/10/16 04:47:42;;;;;;;9.52;3.90;;;;;;;-145.18;100.00;46642.81;5026955;28;20699;-66
2023/10/16 04:50:11;;;;;;;7.33;3.80;;;;;;;-145.18;100.00;46638.91;5028017;28;20052;-65
2023/10/16 04:53:06;;;;;;;8.17;4.23;;;;;;;-145.18;100.00;46636.94;5032749;28;20032;-65
2023/10/16 05:17:58;;;;;;;8.27;4.27;;;;;;;-145.18;100.00;46644.78;5032032;28;20812;-65
2023/10/16 06:14:52;;;;;;;9.97;4.70;;;;;;;-145.18;100.00;46636.94;5016756;28;20333;-65
2023/10/16 06:17:17;;;;;;;8.03;4.13;;;;;;;-145.18;100.00;46633.06;5016089;28;20272;-65
2023/10/16 06:19:43;;;;;;;7.80;4.57;;;;;;;-145.18;100.00;46636.94;5031496;28;20041;-65
2023/10/16 06:22:09;;;;;;;9.00;4.10;;;;;;;-145.18;100.00;46636.94;5031915;28;20470;-65
2023/10/16 06:24:47;;;;;;;8.77;4.27;;;;;;;-145.18;100.00;46638.91;5032521;28;20199;-65
2023/10/16 06:27:19;;;;;;;6.97;4.27;;;;;;;-145.18;100.00;46638.91;5032923;28;20290;-66
2023/10/16 06:29:51;;;;;;;9.10;5.50;;;;;;;-145.18;100.00;46638.91;5027067;28;20301;-65
2023/10/16 06:32:18;;;;;;;10.43;4.93;;;;;;;-145.18;100.00;46638.91;5030540;28;20827;-65
2023/10/16 06:34:57;;;;;;;11.13;4.57;;;;;;;-145.18;100.00;46638.91;5028571;28;20350;-66
2023/10/16 06:37:28;;;;;;;9.47;4.53;;;;;;;-145.18;100.00;46636.94;5031153;28;20252;-66
2023/10/16 06:40:00;;;;;;;7.23;4.47;;;;;;;-145.18;100.00;46642.81;5030836;28;20742;-66
2023/10/16 06:42:29;;;;;;;8.37;4.70;;;;;;;-145.18;100.00;46636.94;5024990;28;20343;-66
2023/10/16 06:44:54;;;;;;;12.63;5.30;;;;;;;-145.18;100.00;46638.91;5017737;28;20731;-66
2023/10/16 06:47:34;;;;;;;7.43;5.00;;;;;;;-145.18;100.00;46638.91;5021889;28;20270;-66
2023/10/16 06:53:01;;;;;;;10.93;4.53;;;;;;;-145.18;100.00;46635.00;5019011;28;20294;-65
2023/10/16 06:55:26;;;;;;;10.07;4.87;;;;;;;-145.18;100.00;46636.94;5019731;28;20270;-65
2023/10/16 06:57:51;;;;;;;9.07;5.17;;;;;;;-145.18;100.00;46636.94;5024173;28;20259;-65
2023/10/16 07:00:33;;;;;;;8.17;5.13;;;;;;;-145.18;100.00;46636.94;5024046;28;20494;-66
2023/10/16 07:03:01;;;;;;;11.10;4.90;;;;;;;-145.18;100.00;46633.06;5028454;28;20025;-66
2023/10/16 07:05:43;;;;;;;9.43;5.00;;;;;;;-145.18;100.00;46636.94;5022788;28;20745;-69
2023/10/16 07:08:18;;;;;;;10.33;5.23;;;;;;;-145.18;100.00;46631.09;5018641;28;20636;-69
2023/10/16 07:10:52;;;;;;;;;;;;;;;-145.18;100.00;46633.06;5018554;28;20929;-69
2023/10/16 07:13:27;;;;;;;10.50;4.87;;;;;;;-145.18;100.00;46633.06;5019641;28;19967;-69
2023/10/16 07:15:56;;;;;;;12.88;5.03;;;;;;;-145.18;100.00;46629.13;5020129;28;20258;-69
2023/10/16 07:18:24;;;;;;;7.73;5.20;;;;;;;-145.18;100.00;46629.13;5023274;28;20021;-69
2023/10/16 07:21:39;;;;;;;7.67;4.83;;;;;;;-145.18;100.00;46631.09;5031002;28;20384;-69
2023/10/16 07:23:39;;;;;;;7.10;5.10;;;;;;;-145.18;100.00;46631.09;5016580;28;20265;-69
2023/10/16 07:26:07;;;;;;;9.40;5.13;;;;;;;-145.18;100.00;46627.19;5021034;28;20267;-69
2023/10/16 07:28:33;;;;;;;8.57;5.07;;;;;;;-145.18;100.00;46629.13;5023715;28;20040;-69
2023/10/16 07:30:59;;;;;;;8.40;4.97;;;;;;;-145.18;100.00;46625.22;5022447;28;20294;-69
2023/10/16 07:33:26;;;;;;;11.70;5.93;;;;;;;-145.18;100.00;46629.13;5021975;28;20036;-69
2023/10/16 07:35:53;;;;;;;15.77;5.67;;;;;;;-145.18;100.00;46631.09;5023309;28;20750;-69
2023/10/16 07:38:23;;;;;;;12.17;5.57;;;;;;;-145.18;100.00;46623.28;5023217;28;20264;-69
2023/10/16 07:40:52;;;;;;;10.50;5.70;;;;;;;-145.18;100.00;46629.13;5019383;28;20729;-69
2023/10/16 07:43:28;;;;;;;14.57;5.67;;;;;;;-145.18;100.00;46629.13;5021070;28;20247;-69
2023/10/16 07:48:37;;;;;;;12.73;5.80;;;;;;;-145.18;100.00;46625.22;5020055;28;20036;-69
2023/10/16 07:51:06;;;;;;;18.13;5.83;;;;;;;-145.18;100.00;46627.19;5022097;28;20306;-69
2023/10/16 07:53:34;;;;;;;11.17;6.67;;;;;;;-145.18;100.00;46627.19;5024893;28;20306;-69
2023/10/16 07:56:02;;;;;;;7.67;5.30;;;;;;;-145.18;100.00;46625.22;5022983;28;20361;-69
2023/10/16 07:58:33;;;;;;;9.30;5.93;;;;;;;-145.18;100.00;46631.09;5030104;28;20254;-69
2023/10/16 08:03:41;;;;;;;10.93;5.83;;;;;;;-145.18;100.00;46627.19;5021143;28;20255;-69
2023/10/16 08:06:12;;;;;;;9.50;5.33;;;;;;;-145.18;100.00;46629.13;5020171;28;20242;-69
2023/10/16 08:08:42;;;;;;;11.63;5.63;;;;;;;-145.18;100.00;46629.13;5016441;28;20306;-69
2023/10/16 08:11:12;;;;;;;11.53;5.33;;;;;;;-145.18;100.00;46629.13;5016582;28;20743;-69
2023/10/16 08:13:49;;;;;;;7.40;5.47;;;;;;;-145.18;100.00;46625.22;5021022;28;20702;-66
2023/10/16 08:16:21;;;;;;;9.73;4.87;;;;;;;-145.18;100.00;46631.09;5030158;28;20304;-66
2023/10/16 08:18:51;;;;;;;9.10;5.27;;;;;;;-145.18;100.00;46627.19;5022864;28;20334;-66
2023/10/16 08:21:26;;;;;;;7.77;4.90;;;;;;;-145.18;100.00;46629.13;5013324;28;20251;-66
2023/10/16 08:23:57;;;;;;;12.35;5.15;;;;;;;-145.18;100.00;46629.13;5025593;28;20255;-66
2023/10/16 08:26:29;;;;;;;6.83;5.00;;;;;;;-145.18;100.00;46629.13;5022867;28;20032;-66
2023/10/16 08:31:44;;;;;;;7.13;4.53;;;;;;;-145.18;100.00;46631.09;5025052;28;20452;-66
2023/10/16 08:34:13;;;;;;;8.93;5.07;;;;;;;-145.18;100.00;46633.06;5033309;28;20746;-66
2023/10/16 08:36:38;;;;;;;7.53;4.27;;;;;;;-145.18;100.00;46635.00;5035325;28;20032;-66
2023/10/16 08:39:16;;;;;;;11.50;4.73;;;;;;;-145.18;100.00;46635.00;5032806;28;20029;-66
2023/10/16 08:42:00;;;;;;;12.17;4.80;;;;;;;-145.18;100.00;46636.94;5034981;28;20080;-66
2023/10/16 08:44:28;;;;;;;10.80;4.90;;;;;;;-145.18;100.00;46636.94;5028903;28;20021;-66
2023/10/16 08:49:26;;;;;;;7.67;4.53;;;;;;;-145.18;100.00;46640.88;5052990;28;20029;-66
2023/10/16 08:51:54;;;;;;;7.63;4.77;;;;;;;-145.18;100.00;46642.81;5029189;28;20040;-66
2023/10/16 08:57:07;;;;;;;8.57;4.17;;;;;;;-145.18;100.00;46642.81;5032434;28;20086;-66
2023/10/16 08:59:34;;;;;;;11.50;4.73;;;;;;;-145.18;100.00;46640.88;5031559;28;20079;-66
2023/10/16 09:02:01;;;;;;;8.87;4.17;;;;;;;-145.18;100.00;46644.78;5028476;28;20422;-66
2023/10/16 09:04:27;;;;;;;7.17;3.63;;;;;;;-145.18;100.00;46644.78;5030662;28;20397;-67
2023/10/16 09:06:53;;;;;;;9.43;3.90;;;;;;;-145.18;100.00;46644.78;5025992;28;20025;-66
2023/10/16 09:09:20;;;;;;;7.87;3.67;;;;;;;-145.18;100.00;46648.69;5029696;28;20029;-66
2023/10/16 09:11:47;;;;;;;8.47;2.70;;;;;;;-145.18;100.00;46644.78;5027409;28;20482;-66
2023/10/16 09:14:20;;;;;;;5.10;1.80;;;;;;;-145.18;100.00;46652.59;5027497;28;20033;-67
2023/10/16 09:16:51;;;;;;;4.70;1.70;;;;;;;-145.18;100.00;46664.31;5024192;28;20026;-66
2023/10/16 09:19:18;;;;;;;8.27;1.40;;;;;;;-145.18;100.00;46660.41;5026735;28;20038;-67
2023/10/16 09:21:44;;;;;;;1.97;0.90;;;;;;;-145.18;100.00;46668.22;5024162;28;20022;-67
2023/10/16 09:24:13;;;;;;;4.73;0.97;;;;;;;-145.18;100.00;46670.16;5025219;28;20025;-66
2023/10/16 09:26:44;;;;;;;3.63;1.40;;;;;;;-145.18;100.00;46674.06;5028602;28;20029;-67
2023/10/16 09:29:14;;;;;;;2.47;0.90;;;;;;;-145.18;100.00;46683.84;5023782;28;20032;-66
2023/10/16 09:31:46;;;;;;;6.00;1.00;;;;;;;-145.18;100.00;46685.78;5023260;28;20181;-66
2023/10/16 09:34:17;;;;;;;3.70;0.50;;;;;;;-145.18;100.00;46689.69;5023347;28;20038;-66
2023/10/16 09:36:46;;;;;;;4.43;0.80;;;;;;;-145.18;100.00;46691.66;5024943;28;20397;-66
2023/10/16 09:39:18;;;;;;;3.00;0.80;;;;;;;-145.18;100.00;46676.03;5025982;28;20448;-66
2023/10/16 09:41:47;;;;;;;2.27;0.80;;;;;;;-145.18;100.00;46660.41;5026917;28;20500;-67
2023/10/16 09:44:22;;;;;;;3.63;1.57;;;;;;;-145.18;100.00;46660.41;5015621;28;20034;-67
2023/10/16 09:46:52;;;;;;;4.97;0.85;;;;;;;-145.18;100.00;46582.25;5014477;28;20490;-66
2023/10/16 09:49:23;;;;;;;2.20;0.90;;;;;;;-145.18;100.00;46562.72;5018211;28;20119;-67
2023/10/16 09:51:50;;;;;;;2.53;1.00;;;;;;;-145.18;100.00;46574.44;5034267;28;20037;-67
2023/10/16 09:54:17;;;;;;;7.53;1.17;;;;;;;-145.18;100.00;46570.53;5020628;28;20038;-67
2023/10/16 09:56:44;;;;;;;3.00;0.57;;;;;;;-145.18;100.00;46570.53;5033553;28;20029;-67
2023/10/16 09:59:26;;;;;;;4.53;0.90;;;;;;;-145.18;100.00;46590.06;5033500;28;20025;-67
2023/10/16 10:01:55;;;;;;;1.97;0.47;;;;;;;-145.18;100.00;46582.25;5033528;28;20078;-67
2023/10/16 10:04:24;;;;;;;4.43;0.50;;;;;;;-145.18;100.00;46588.13;5032614;28;20159;-67
2023/10/16 10:06:57;;;;;;;2.53;0.40;;;;;;;-145.18;100.00;46584.22;5022128;28;20390;-67
2023/10/16 10:09:44;;;;;;;1.90;0.57;;;;;;;-145.18;100.00;46607.66;5019755;28;20040;-67
2023/10/16 10:12:26;;;;;;;2.30;0.50;;;;;;;-145.18;100.00;46613.50;5033519;28;20048;-67
2023/10/16 10:15:28;;;;;;;1.53;0.50;;;;;;;-145.18;100.00;46607.66;5023629;28;20105;-67
2023/10/16 10:17:58;;;;;;;1.83;0.60;;;;;;;-145.18;100.00;46609.59;5017304;28;20030;-66
2023/10/16 10:20:26;;;;;;;2.03;0.70;;;;;;;-145.18;100.00;46615.47;5026114;28;20029;-66
2023/10/16 10:22:58;;;;;;;3.90;0.77;;;;;;;-145.18;100.00;46609.59;5028712;28;20189;-66
2023/10/16 10:25:37;;;;;;;2.33;0.70;;;;;;;-145.18;100.00;46605.69;5033406;28;20358;-66
2023/10/16 10:28:17;;;;;;;5.37;1.37;;;;;;;-145.18;100.00;46605.69;5025113;28;20190;-67
2023/10/16 10:30:44;;;;;;;2.33;0.50;;;;;;;-145.18;100.00;46601.78;5013474;28;20062;-67
2023/10/16 10:33:33;;;;;;;6.03;0.60;;;;;;;-145.18;100.00;46611.56;5023561;28;20033;-67
2023/10/16 10:36:43;;;;;;;3.43;0.70;;;;;;;-145.18;100.00;46644.78;5028898;28;20087;-67
2023/10/16 10:39:39;;;;;;;1.87;0.60;;;;;;;-145.18;100.00;46664.31;5024288;28;20029;-66
2023/10/16 10:42:08;;;;;;;2.43;0.47;;;;;;;-145.18;100.00;46703.38;5021290;28;20087;-67
2023/10/16 10:44:44;;;;;;;1.70;0.40;;;;;;;-145.18;100.00;46701.41;5030795;28;20036;-67
2023/10/16 10:47:32;;;;;;;1.87;0.50;;;;;;;-145.18;100.00;46687.75;5029441;28;20064;-67
2023/10/16 10:50:00;;;;;;;2.40;0.50;;;;;;;-145.18;100.00;46728.75;5016400;28;20560;-67
2023/10/16 10:52:31;;;;;;;2.53;0.70;;;;;;;-145.18;100.00;46664.31;5023908;28;20037;-67
2023/10/16 10:55:00;;;;;;;3.13;0.40;;;;;;;-145.18;100.00;46676.03;5016066;28;20041;-67
2023/10/16 10:57:26;;;;;;;5.00;0.87;;;;;;;-145.18;100.00;46691.66;5025678;28;20029;-66
2023/10/16 10:59:56;;;;;;;4.23;0.90;;;;;;;-145.18;100.00;46719.00;5016087;28;20041;-67
2023/10/16 11:02:48;;;;;;;2.37;0.50;;;;;;;-145.18;100.00;46699.47;5025326;28;20044;-66
2023/10/16 11:05:31;;;;;;;3.80;0.37;;;;;;;-145.18;100.00;46681.88;5020490;28;20386;-67
2023/10/16 11:10:42;;;;;;;2.92;0.55;;;;;;;-145.18;100.00;46654.53;5025057;28;20036;-67
2023/10/16 11:13:08;;;;;;;1.93;0.50;;;;;;;-145.18;100.00;46703.38;5028239;28;20025;-67
2023/10/16 11:15:53;;;;;;;2.83;0.50;;;;;;;-145.18;100.00;46758.06;5024778;28;20030;-66
2023/10/16 11:18:20;;;;;;;1.80;0.60;;;;;;;-145.18;100.00;46971.00;5028932;28;20056;-66
2023/10/16 11:20:48;;;;;;;1.77;0.47;;;;;;;-145.18;100.00;47156.56;5025539;28;20430;-67
2023/10/16 11:23:14;;;;;;;1.27;0.60;;;;;;;-145.18;100.00;47113.59;5021391;28;20053;-67
2023/10/16 11:25:46;;;;;;;4.00;0.70;;;;;;;-145.18;100.00;47332.41;5013425;28;20119;-67
2023/10/16 11:28:20;;;;;;;0.60;0.40;;;;;;;-145.18;100.00;47258.16;5012951;28;20725;-67
2023/10/16 11:30:53;;;;;;;3.67;0.40;;;;;;;-145.18;100.00;47277.69;5025858;28;20064;-66
2023/10/16 11:33:34;;;;;;;1.30;0.80;;;;;;;-145.18;100.00;47271.84;5012264;28;20025;-67
2023/10/16 11:36:06;;;;;;;2.93;0.50;;;;;;;-145.18;100.00;47271.84;5017867;28;20032;-67
2023/10/16 11:38:34;;;;;;;1.57;0.50;;;;;;;-145.18;100.00;47258.16;5031213;28;20029;-67
2023/10/16 11:41:12;;;;;;;2.63;0.60;;;;;;;-145.18;100.00;47242.53;5012945;28;20109;-67
2023/10/16 11:43:56;;;;;;;1.37;0.70;;;;;;;-145.18;100.00;47246.44;5023790;28;20021;-68
2023/10/16 11:46:28;;;;;;;4.03;0.50;;;;;;;-145.18;100.00;47230.81;5023820;28;20018;-66
2023/10/16 11:49:29;;;;;;;1.03;0.40;;;;;;;-145.18;100.00;47207.38;5019340;28;20037;-66
2023/10/16 11:52:08;;;;;;;3.23;0.40;;;;;;;-145.18;100.00;47219.09;5030892;28;20057;-66
2023/10/16 11:54:35;;;;;;;2.43;0.70;;;;;;;-145.18;100.00;47207.38;5026306;28;20026;-66
2023/10/16 11:57:00;;;;;;;1.57;0.60;;;;;;;-145.18;100.00;47242.53;5028406;28;20108;-66
2023/10/16 11:59:28;;;;;;;1.33;0.70;;;;;;;-145.18;100.00;47211.28;5030058;28;20100;-66
2023/10/16 12:01:53;;;;;;;2.37;0.37;;;;;;;-145.18;100.00;47242.53;5031423;28;20014;-66
2023/10/16 12:04:20;;;;;;;1.83;0.60;;;;;;;-145.18;100.00;47213.22;5029754;28;20028;-66
2023/10/16 12:06:48;;;;;;;3.03;0.60;;;;;;;-145.18;100.00;47221.03;5030238;28;20125;-65
2023/10/16 12:09:19;;;;;;;0.50;0.50;;;;;;;-145.18;100.00;47238.63;5029327;28;20040;-65
2023/10/16 12:11:44;;;;;;;2.17;0.57;;;;;;;-145.18;100.00;47217.13;5031399;28;20040;-65
2023/10/16 12:14:16;;;;;;;1.53;0.90;;;;;;;-145.18;100.00;47232.75;5027479;28;20021;-65
2023/10/16 12:16:45;;;;;;;2.80;0.60;;;;;;;-145.18;100.00;47211.28;5029647;28;20513;-64
2023/10/16 12:19:14;;;;;;;1.83;0.70;;;;;;;-145.18;100.00;47213.22;5027979;28;20032;-64
2023/10/16 12:21:41;;;;;;;2.27;0.50;;;;;;;-145.18;100.00;47236.66;5015184;28;20125;-65
2023/10/16 12:24:07;;;;;;;2.43;0.50;;;;;;;-145.18;100.00;47215.19;5017453;28;20048;-64
2023/10/16 12:26:34;;;;;;;1.50;0.60;;;;;;;-145.18;100.00;47189.78;5017205;28;20022;-65
2023/10/16 12:29:00;;;;;;;1.00;0.70;;;;;;;-145.18;100.00;47213.22;5021222;28;20021;-65
2023/10/16 12:31:26;;;;;;;0.50;0.50;;;;;;;-145.18;100.00;47199.56;5015160;28;20076;-64
2023/10/16 12:33:52;;;;;;;2.40;0.60;;;;;;;-145.18;100.00;47178.06;5019157;28;20045;-64
2023/10/16 12:36:18;;;;;;;21.87;5.00;;;;;;;-145.18;100.00;47191.75;5015447;28;20497;-64
2023/10/16 12:38:44;;;;;;;9.73;2.03;;;;;;;-145.18;100.00;47168.28;5017553;28;20029;-64
2023/10/16 12:41:10;;;;;;;10.10;1.47;;;;;;;-145.18;100.00;47166.34;5014603;28;20160;-64
2023/10/16 12:43:36;;;;;;;2.90;0.90;;;;;;;-145.18;100.00;47180.03;5018419;28;20208;-64
2023/10/16 12:46:02;;;;;;;2.67;0.80;;;;;;;-145.18;100.00;47197.59;5027335;28;20030;-64
2023/10/16 12:48:28;;;;;;;3.20;0.77;;;;;;;-145.18;100.00;47211.28;5025557;28;20140;-64
2023/10/16 12:50:59;;;;;;;1.80;0.60;;;;;;;-145.18;100.00;47162.44;5026834;28;20026;-64
2023/10/16 12:53:27;;;;;;;2.30;0.77;;;;;;;-145.18;100.00;47168.28;5026144;28;20477;-64
2023/10/16 12:55:55;;;;;;;5.37;1.20;;;;;;;-145.18;100.00;47078.44;5024952;28;20037;-67
2023/10/16 12:58:22;;;;;;;3.23;1.10;;;;;;;-145.18;78.09;47053.03;5023729;28;20034;-67
2023/10/16 13:00:50;;;;;;;7.23;1.30;;;;;;;-145.18;0.00;47142.91;5022629;28;20048;-67
2023/10/16 13:03:16;;;;;;;7.57;1.43;;;;;;;-145.18;0.00;47047.19;5024795;28;20040;-67
2023/10/16 13:05:42;;;;;;;4.53;1.40;;;;;;;-145.18;0.00;47015.91;5023183;28;20482;-67
2023/10/16 13:08:08;;;;;;;8.77;1.27;;;;;;;-145.18;0.00;47015.91;5026017;28;20099;-67
2023/10/16 13:10:35;;;;;;;2.63;0.70;;;;;;;-145.18;0.00;47051.09;5027380;28;20057;-66
2023/10/16 13:13:00;;;;;;;3.63;1.23;;;;;;;-145.18;0.00;47090.16;5033991;28;20084;-67
2023/10/16 13:15:29;;;;;;;5.60;1.70;;;;;;;-145.18;0.00;47119.47;5029740;28;20433;-67
2023/10/16 13:17:55;;;;;;;2.40;0.80;;;;;;;-145.18;0.00;47121.41;5025936;28;20091;-67
2023/10/16 13:20:26;;;;;;;3.83;0.60;;;;;;;-145.18;0.00;47129.22;5033879;28;20478;-66
2023/10/16 13:22:52;;;;;;;3.70;1.20;;;;;;;-145.18;0.00;47094.06;5030893;28;20025;-67
2023/10/16 13:25:28;;;;;;;1.30;0.70;;;;;;;-145.18;0.00;47078.44;5033078;28;20037;-66
2023/10/16 13:27:55;;;;;;;3.40;1.00;;;;;;;-145.18;0.00;47066.72;5030310;28;20112;-66
2023/10/16 13:30:22;;;;;;;3.63;0.83;;;;;;;-145.18;0.00;47035.44;5032459;28;20049;-67
2023/10/16 13:32:48;;;;;;;2.50;0.57;;;;;;;-145.18;0.00;47082.34;5031150;28;20041;-66
2023/10/16 13:35:23;;;;;;;0.90;0.60;;;;;;;-145.18;0.00;47082.34;5030000;28;20033;-66